createdAt,value
2023-01-01T00:00:48.082Z,100146.69
2023-01-01T00:03:35.789Z,100162.94
2023-01-01T00:06:06.248Z,100163.78
2023-01-01T00:08:35.180Z,100159.63
2023-01-01T00:11:03.611Z,100160.06
2023-01-01T00:13:33.033Z,100155.00
2023-01-01T00:16:04.697Z,100153.13
2023-01-01T00:18:32.312Z,100152.94
2023-01-01T00:21:04.223Z,100155.44
2023-01-01T00:23:32.137Z,100151.88
2023-01-01T00:26:00.198Z,100158.59
2023-01-01T00:28:28.053Z,100164.63
2023-01-01T00:30:57.479Z,100169.84
2023-01-01T00:33:25.024Z,100164.66
2023-01-01T00:35:52.964Z,100174.25
2023-01-01T00:38:20.595Z,100174.22
2023-01-01T00:40:48.539Z,100182.75
2023-01-01T00:43:15.991Z,100176.94
2023-01-01T00:45:43.941Z,100185.84
2023-01-01T00:48:12.913Z,100183.78
2023-01-01T00:50:41.067Z,100181.66
2023-01-01T00:53:08.667Z,100182.03
2023-01-01T00:55:39.113Z,100184.59
2023-01-01T00:58:06.823Z,100189.59
2023-01-01T01:00:35.390Z,100182.31
2023-01-01T01:03:03.104Z,100177.97
2023-01-01T01:05:33.508Z,100187.19
2023-01-01T01:08:01.105Z,100179.00
2023-01-01T01:10:29.142Z,100188.19
2023-01-01T01:12:56.738Z,100195.69
2023-01-01T01:15:24.800Z,100191.75
2023-01-01T01:17:52.278Z,100190.94
2023-01-01T01:20:20.486Z,100196.75
2023-01-01T01:22:50.331Z,100202.03
2023-01-01T01:25:18.498Z,100201.22
2023-01-01T01:27:46.060Z,100201.38
2023-01-01T01:30:14.305Z,100207.63
2023-01-01T01:32:41.819Z,100202.44
2023-01-01T01:35:09.950Z,100196.38
2023-01-01T01:37:37.567Z,100203.47
2023-01-01T01:40:08.667Z,100202.22
2023-01-01T01:42:39.318Z,100204.50
2023-01-01T01:45:10.968Z,100214.75
2023-01-01T01:47:45.109Z,100210.16
2023-01-01T01:50:17.591Z,100209.09
2023-01-01T01:52:57.084Z,100212.47
2023-01-01T01:55:29.172Z,100218.09
2023-01-01T01:57:57.402Z,100210.59
2023-01-01T02:00:25.590Z,100212.88
2023-01-01T02:02:56.905Z,100206.00
2023-01-01T02:05:25.375Z,100217.91
2023-01-01T02:07:54.100Z,100217.94
2023-01-01T02:10:22.350Z,100218.75
2023-01-01T02:12:51.517Z,100222.94
2023-01-01T02:15:19.673Z,100206.25
2023-01-01T02:17:54.484Z,100230.47
2023-01-01T02:20:48.454Z,100221.88
2023-01-01T02:23:44.196Z,100216.66
2023-01-01T02:26:49.940Z,100222.91
2023-01-01T02:29:30.642Z,100219.19
2023-01-01T02:32:02.649Z,100213.28
2023-01-01T02:34:35.099Z,100216.03
2023-01-01T02:37:07.501Z,100219.38
2023-01-01T02:39:37.837Z,100222.50
2023-01-01T02:42:07.960Z,100216.66
2023-01-01T02:44:41.823Z,100218.53
2023-01-01T02:47:11.741Z,100216.47
2023-01-01T02:49:47.133Z,100215.22
2023-01-01T02:52:24.206Z,100215.63
2023-01-01T02:54:59.961Z,100226.06
2023-01-01T02:57:35.576Z,100230.66
2023-01-01T03:00:08.224Z,100231.91
2023-01-01T03:02:50.737Z,100228.59
2023-01-01T03:05:25.339Z,100224.22
2023-01-01T03:08:02.768Z,100238.81
2023-01-01T03:10:39.916Z,100232.34
2023-01-01T03:13:15.617Z,100233.38
2023-01-01T03:15:51.557Z,100234.63
2023-01-01T03:18:25.488Z,100242.13
2023-01-01T03:20:57.491Z,100240.22
2023-01-01T03:23:31.585Z,100249.59
2023-01-01T03:26:06.052Z,100254.19
2023-01-01T03:28:37.945Z,100257.94
2023-01-01T03:31:07.546Z,100259.63
2023-01-01T03:33:39.897Z,100241.91
2023-01-01T03:36:10.319Z,100262.06
2023-01-01T03:38:43.484Z,100260.00
2023-01-01T03:41:15.523Z,100263.94
2023-01-01T03:43:49.710Z,100265.19
2023-01-01T03:46:25.576Z,100259.78
2023-01-01T03:49:00.301Z,100260.16
2023-01-01T03:51:54.819Z,100266.19
2023-01-01T03:54:31.152Z,100261.97
2023-01-01T03:57:06.288Z,100276.72
2023-01-01T03:59:40.932Z,100270.69
2023-01-01T04:02:13.204Z,100273.44
2023-01-01T04:04:41.883Z,100278.38
2023-01-01T04:07:15.290Z,100273.59
2023-01-01T04:09:50.342Z,100273.94
2023-01-01T04:12:19.444Z,100275.44
2023-01-01T04:14:47.416Z,100277.78
2023-01-01T04:17:16.483Z,100284.66
2023-01-01T04:19:48.750Z,100291.59
2023-01-01T04:22:19.217Z,100291.78
2023-01-01T04:24:47.143Z,100290.19
2023-01-01T04:27:14.704Z,100289.63
2023-01-01T04:29:42.638Z,100291.31
2023-01-01T04:32:10.149Z,100283.25
2023-01-01T04:34:39.540Z,100288.97
2023-01-01T04:37:12.927Z,100294.47
2023-01-01T04:39:41.730Z,100305.19
2023-01-01T04:42:09.337Z,100310.59
2023-01-01T04:44:37.201Z,100309.81
2023-01-01T04:47:05.140Z,100307.88
2023-01-01T04:49:32.949Z,100304.50
2023-01-01T04:52:02.009Z,100312.22
2023-01-01T04:54:29.941Z,100307.84
2023-01-01T04:56:57.504Z,100307.84
2023-01-01T04:59:25.499Z,100318.22
2023-01-01T05:01:53.230Z,100316.81
2023-01-01T05:04:21.240Z,100313.00
2023-01-01T05:06:48.874Z,100309.28
2023-01-01T05:09:18.765Z,100310.44
2023-01-01T05:11:47.924Z,100313.53
2023-01-01T05:14:15.860Z,100320.81
2023-01-01T05:16:43.498Z,100324.94
2023-01-01T05:19:11.627Z,100315.25
2023-01-01T05:21:40.300Z,100323.38
2023-01-01T05:24:10.625Z,100325.03
2023-01-01T05:26:43.142Z,100334.47
2023-01-01T05:29:16.514Z,100325.97
2023-01-01T05:31:45.545Z,100333.19
2023-01-01T05:34:13.738Z,100327.00
2023-01-01T05:36:41.356Z,100345.38
2023-01-01T05:39:11.016Z,100351.72
2023-01-01T05:41:40.280Z,100343.72
2023-01-01T05:44:09.195Z,100338.88
2023-01-01T05:46:37.219Z,100344.09
2023-01-01T05:49:05.300Z,100346.72
2023-01-01T05:54:02.905Z,100345.03
2023-01-01T05:56:30.545Z,100343.56
2023-01-01T05:58:59.907Z,100346.16
2023-01-01T06:01:28.942Z,100345.22
2023-01-01T06:03:58.216Z,100350.16
2023-01-01T06:06:27.323Z,100352.75
2023-01-01T06:08:57.058Z,100347.84
2023-01-01T06:11:24.699Z,100341.50
2023-01-01T06:13:53.443Z,100346.25
2023-01-01T06:16:22.621Z,100342.00
2023-01-01T06:18:50.857Z,100340.97
2023-01-01T06:21:20.647Z,100345.50
2023-01-01T06:23:48.789Z,100348.41
2023-01-01T06:26:18.021Z,100343.38
2023-01-01T06:28:47.132Z,100352.13
2023-01-01T06:31:17.202Z,100344.69
2023-01-01T06:33:47.415Z,100342.72
2023-01-01T06:36:17.038Z,100344.13
2023-01-01T06:38:46.703Z,100343.47
2023-01-01T06:41:16.425Z,100346.53
2023-01-01T06:43:45.157Z,100334.06
2023-01-01T06:46:16.440Z,100344.03
2023-01-01T06:48:47.125Z,100348.50
2023-01-01T06:51:16.721Z,100349.97
2023-01-01T06:53:45.457Z,100353.13
2023-01-01T06:56:13.259Z,100353.63
2023-01-01T06:58:44.164Z,100360.72
2023-01-01T07:01:14.464Z,100359.31
2023-01-01T07:03:43.191Z,100364.78
2023-01-01T07:06:12.326Z,100372.44
2023-01-01T07:08:40.297Z,100362.13
2023-01-01T07:11:07.834Z,100366.94
2023-01-01T07:13:36.112Z,100375.69
2023-01-01T07:16:10.209Z,100376.88
2023-01-01T07:18:40.882Z,100382.75
2023-01-01T07:21:29.630Z,100377.91
2023-01-01T07:23:59.148Z,100379.69
2023-01-01T07:26:28.353Z,100374.09
2023-01-01T07:29:02.770Z,100387.31
2023-01-01T07:31:34.423Z,100401.78
2023-01-01T07:34:04.808Z,100383.06
2023-01-01T07:36:34.316Z,100386.31
2023-01-01T07:39:02.475Z,100383.34
2023-01-01T07:41:30.126Z,100374.84
2023-01-01T07:43:58.173Z,100388.53
2023-01-01T07:46:25.677Z,100390.03
2023-01-01T07:48:53.697Z,100383.56
2023-01-01T07:51:21.187Z,100397.69
2023-01-01T07:53:50.724Z,100400.28
2023-01-01T07:56:18.496Z,100394.06
2023-01-01T07:58:46.860Z,100394.78
2023-01-01T08:01:14.583Z,100395.28
2023-01-01T08:03:43.043Z,100394.38
2023-01-01T08:06:12.096Z,100390.31
2023-01-01T08:08:40.420Z,100401.69
2023-01-01T08:11:09.554Z,100398.22
2023-01-01T08:13:37.502Z,100396.78
2023-01-01T08:16:05.825Z,100396.03
2023-01-01T08:18:34.012Z,100399.22
2023-01-01T08:21:01.682Z,100401.38
2023-01-01T08:23:29.716Z,100400.75
2023-01-01T08:25:59.405Z,100404.38
2023-01-01T08:28:29.955Z,100414.72
2023-01-01T08:30:57.512Z,100416.50
2023-01-01T08:33:25.417Z,100415.75
2023-01-01T08:35:54.673Z,100419.31
2023-01-01T08:38:23.007Z,100414.28
2023-01-01T08:40:50.685Z,100425.53
2023-01-01T08:43:18.871Z,100426.38
2023-01-01T08:45:48.735Z,100431.81
2023-01-01T08:48:16.729Z,100432.44
2023-01-01T08:50:44.307Z,100431.81
2023-01-01T08:53:12.241Z,100434.03
2023-01-01T08:55:39.817Z,100431.00
2023-01-01T08:58:07.821Z,100440.63
2023-01-01T09:00:35.448Z,100440.94
2023-01-01T09:03:05.015Z,100447.59
2023-01-01T09:05:32.683Z,100439.47
2023-01-01T09:08:00.634Z,100433.91
2023-01-01T09:10:28.275Z,100443.34
2023-01-01T09:12:56.066Z,100448.81
2023-01-01T09:15:23.588Z,100442.66
2023-01-01T09:17:51.659Z,100440.78
2023-01-01T09:20:20.902Z,100438.28
2023-01-01T09:22:49.206Z,100445.78
2023-01-01T09:25:16.767Z,100450.41
2023-01-01T09:27:44.828Z,100452.88
2023-01-01T09:30:13.506Z,100450.00
2023-01-01T09:32:41.587Z,100447.03
2023-01-01T09:35:10.216Z,100438.28
2023-01-01T09:37:39.585Z,100434.28
2023-01-01T09:40:08.342Z,100450.84
2023-01-01T09:42:41.370Z,100439.13
2023-01-01T09:45:23.416Z,100449.59
2023-01-01T09:47:54.815Z,100450.88
2023-01-01T09:50:25.428Z,100433.75
2023-01-01T09:52:57.998Z,100438.16
2023-01-01T09:55:28.317Z,100429.78
2023-01-01T09:57:57.482Z,100431.88
2023-01-01T10:00:25.509Z,100435.00
2023-01-01T10:03:09.261Z,100442.94
2023-01-01T10:05:47.071Z,100446.31
2023-01-01T10:08:32.304Z,100449.66
2023-01-01T10:11:09.484Z,100442.97
2023-01-01T10:13:41.010Z,100435.88
2023-01-01T10:16:15.221Z,100445.28
2023-01-01T10:18:49.670Z,100438.16
2023-01-01T10:21:25.760Z,100439.41
2023-01-01T10:23:57.941Z,100446.28
2023-01-01T10:26:28.742Z,100447.78
2023-01-01T10:29:02.971Z,100455.94
2023-01-01T10:31:33.920Z,100453.63
2023-01-01T10:34:06.517Z,100458.25
2023-01-01T10:36:34.051Z,100457.81
2023-01-01T10:39:03.522Z,100457.63
2023-01-01T10:41:31.730Z,100450.50
2023-01-01T10:43:59.917Z,100444.78
2023-01-01T10:46:31.826Z,100435.06
2023-01-01T10:49:08.760Z,100451.56
2023-01-01T10:51:38.198Z,100442.00
2023-01-01T10:54:31.291Z,100444.06
2023-01-01T10:56:59.526Z,100446.44
2023-01-01T10:59:37.286Z,100444.94
2023-01-01T11:02:23.937Z,100453.91
2023-01-01T11:05:16.306Z,100457.41
2023-01-01T11:07:47.651Z,100446.13
2023-01-01T11:10:20.461Z,100436.91
2023-01-01T11:13:05.678Z,100449.72
2023-01-01T11:15:38.222Z,100451.22
2023-01-01T11:18:11.956Z,100443.41
2023-01-01T11:20:41.035Z,100440.69
2023-01-01T11:23:20.073Z,100432.31
2023-01-01T11:26:03.335Z,100431.00
2023-01-01T11:28:32.347Z,100438.50
2023-01-01T11:31:15.975Z,100431.31
2023-01-01T11:33:47.903Z,100432.34
2023-01-01T11:36:22.466Z,100441.56
2023-01-01T11:38:52.264Z,100437.38
2023-01-01T11:41:21.678Z,100435.28
2023-01-01T11:43:49.287Z,100436.84
2023-01-01T11:46:23.806Z,100437.84
2023-01-01T11:48:53.729Z,100444.66
2023-01-01T11:51:30.990Z,100436.38
2023-01-01T11:54:24.353Z,100436.44
2023-01-01T11:56:58.850Z,100440.06
2023-01-01T11:59:34.262Z,100433.03
2023-01-01T12:02:05.180Z,100442.41
2023-01-01T12:04:42.704Z,100444.53
2023-01-01T12:07:16.094Z,100444.41
2023-01-01T12:09:48.588Z,100448.56
2023-01-01T12:12:25.331Z,100447.19
2023-01-01T12:14:59.363Z,100434.66
2023-01-01T12:17:33.439Z,100442.72
2023-01-01T12:20:04.663Z,100440.22
2023-01-01T12:22:32.863Z,100440.31
2023-01-01T12:25:01.160Z,100447.50
2023-01-01T12:27:41.653Z,100448.31
2023-01-01T12:30:19.180Z,100445.13
2023-01-01T12:33:12.104Z,100459.69
2023-01-01T12:35:53.357Z,100457.22
2023-01-01T12:38:44.527Z,100447.38
2023-01-01T12:41:20.041Z,100446.47
2023-01-01T12:43:55.023Z,100449.31
2023-01-01T12:46:38.765Z,100444.06
2023-01-01T12:49:30.603Z,100444.69
2023-01-01T12:52:11.104Z,100444.94
2023-01-01T12:55:17.867Z,100456.16
2023-01-01T12:57:51.687Z,100446.94
2023-01-01T13:00:21.547Z,100448.94
2023-01-01T13:02:52.503Z,100464.44
2023-01-01T13:05:24.248Z,100470.84
2023-01-01T13:07:56.298Z,100464.75
2023-01-01T13:10:27.844Z,100457.28
2023-01-01T13:12:56.827Z,100463.16
2023-01-01T13:15:47.354Z,100467.06
2023-01-01T13:18:22.683Z,100458.47
2023-01-01T13:21:02.956Z,100464.06
2023-01-01T13:24:01.219Z,100460.00
2023-01-01T13:26:42.138Z,100462.25
2023-01-01T13:29:42.762Z,100472.31
2023-01-01T13:32:13.858Z,100475.72
2023-01-01T13:35:00.369Z,100479.66
2023-01-01T13:37:46.966Z,100475.13
2023-01-01T13:40:50.238Z,100470.09
2023-01-01T13:43:30.039Z,100470.50
2023-01-01T13:46:15.261Z,100482.81
2023-01-01T13:49:14.072Z,100488.25
2023-01-01T13:52:07.549Z,100488.28
2023-01-01T13:55:05.605Z,100492.03
2023-01-01T13:57:41.129Z,100498.59
2023-01-01T14:00:19.268Z,100496.72
2023-01-01T14:02:51.037Z,100498.81
2023-01-01T14:05:28.235Z,100491.06
2023-01-01T14:07:56.004Z,100501.06
2023-01-01T14:10:26.954Z,100498.53
2023-01-01T14:12:58.159Z,100497.91
2023-01-01T14:15:30.376Z,100497.38
2023-01-01T14:17:59.022Z,100502.13
2023-01-01T14:20:35.934Z,100499.16
2023-01-01T14:23:09.347Z,100498.78
2023-01-01T14:25:41.023Z,100495.16
2023-01-01T14:28:19.330Z,100493.63
2023-01-01T14:30:47.922Z,100489.66
2023-01-01T14:33:24.023Z,100497.03
2023-01-01T14:35:53.938Z,100496.72
2023-01-01T14:38:25.756Z,100494.22
2023-01-01T14:41:09.252Z,100491.91
2023-01-01T14:43:38.037Z,100495.66
2023-01-01T14:46:11.161Z,100499.34
2023-01-01T14:48:44.245Z,100497.53
2023-01-01T14:51:16.952Z,100495.66
2023-01-01T14:53:46.912Z,100493.03
2023-01-01T14:56:23.801Z,100509.28
2023-01-01T14:58:51.614Z,100518.19
2023-01-01T15:01:24.208Z,100525.03
2023-01-01T15:03:57.050Z,100521.72
2023-01-01T15:06:26.989Z,100531.31
2023-01-01T15:08:54.712Z,100536.03
2023-01-01T15:11:28.548Z,100545.78
2023-01-01T15:13:59.667Z,100544.56
2023-01-01T15:16:31.103Z,100542.50
2023-01-01T15:19:17.642Z,100548.81
2023-01-01T15:21:47.664Z,100553.25
2023-01-01T15:24:18.454Z,100560.81
2023-01-01T15:26:51.171Z,100565.72
2023-01-01T15:29:26.387Z,100564.44
2023-01-01T15:31:57.946Z,100566.34
2023-01-01T15:34:29.391Z,100572.03
2023-01-01T15:37:10.622Z,100576.78
2023-01-01T15:39:49.918Z,100572.22
2023-01-01T15:42:32.259Z,100571.94
2023-01-01T15:45:16.295Z,100578.56
2023-01-01T15:47:45.054Z,100575.47
2023-01-01T15:50:22.966Z,100576.84
2023-01-01T15:52:57.031Z,100583.03
2023-01-01T15:55:28.165Z,100594.94
2023-01-01T15:57:57.240Z,100600.94
2023-01-01T16:00:27.348Z,100615.34
2023-01-01T16:02:59.767Z,100609.63
2023-01-01T16:05:29.104Z,100616.41
2023-01-01T16:08:03.936Z,100612.28
2023-01-01T16:10:32.230Z,100618.03
2023-01-01T16:13:00.360Z,100618.41
2023-01-01T16:15:30.385Z,100612.25
2023-01-01T16:18:00.396Z,100617.44
2023-01-01T16:20:31.076Z,100612.22
2023-01-01T16:23:05.145Z,100607.59
2023-01-01T16:25:34.370Z,100619.78
2023-01-01T16:28:02.391Z,100616.22
2023-01-01T16:30:30.509Z,100616.84
2023-01-01T16:32:59.787Z,100619.66
2023-01-01T16:35:27.472Z,100614.91
2023-01-01T16:37:55.652Z,100620.22
2023-01-01T16:40:24.965Z,100624.69
2023-01-01T16:42:53.159Z,100621.59
2023-01-01T16:45:20.814Z,100624.94
2023-01-01T16:47:48.918Z,100627.50
2023-01-01T16:50:17.838Z,100625.31
2023-01-01T16:52:45.846Z,100625.38
2023-01-01T16:55:14.043Z,100628.94
2023-01-01T16:57:43.735Z,100631.16
2023-01-01T17:00:12.419Z,100632.59
2023-01-01T17:02:40.810Z,100626.22
2023-01-01T17:05:09.934Z,100631.69
2023-01-01T17:07:37.961Z,100631.69
2023-01-01T17:10:06.362Z,100639.41
2023-01-01T17:12:34.390Z,100646.78
2023-01-01T17:15:03.637Z,100638.16
2023-01-01T17:17:31.707Z,100634.66
2023-01-01T17:19:59.382Z,100644.50
2023-01-01T17:22:33.888Z,100638.72
2023-01-01T17:25:01.929Z,100643.16
2023-01-01T17:27:29.930Z,100645.41
2023-01-01T17:29:57.509Z,100645.66
2023-01-01T17:32:26.891Z,100648.19
2023-01-01T17:34:54.464Z,100643.00
2023-01-01T17:37:22.439Z,100642.28
2023-01-01T17:39:50.101Z,100640.53
2023-01-01T17:42:18.127Z,100644.75
2023-01-01T17:44:46.235Z,100645.09
2023-01-01T17:47:14.281Z,100640.84
2023-01-01T17:49:43.766Z,100638.31
2023-01-01T17:52:12.400Z,100638.22
2023-01-01T17:54:40.075Z,100640.06
2023-01-01T17:57:08.480Z,100642.78
2023-01-01T17:59:36.236Z,100636.63
2023-01-01T18:02:04.472Z,100631.91
2023-01-01T18:04:32.192Z,100634.66
2023-01-01T18:07:06.042Z,100635.69
2023-01-01T18:09:33.923Z,100640.66
2023-01-01T18:12:02.296Z,100631.09
2023-01-01T18:14:30.049Z,100639.56
2023-01-01T18:16:58.177Z,100645.31
2023-01-01T18:19:25.970Z,100641.53
2023-01-01T18:21:54.127Z,100634.00
2023-01-01T18:24:23.335Z,100648.25
2023-01-01T18:26:51.470Z,100651.84
2023-01-01T18:29:19.184Z,100661.88
2023-01-01T18:31:47.288Z,100664.06
2023-01-01T18:34:14.853Z,100671.66
2023-01-01T18:36:43.018Z,100656.22
2023-01-01T18:39:16.739Z,100657.31
2023-01-01T18:42:28.251Z,100655.13
2023-01-01T18:45:08.500Z,100662.19
2023-01-01T18:47:36.577Z,100657.56
2023-01-01T18:50:15.524Z,100668.34
2023-01-01T18:52:46.217Z,100669.13
2023-01-01T18:55:15.512Z,100678.19
2023-01-01T18:57:48.541Z,100674.97
2023-01-01T19:00:19.135Z,100680.19
2023-01-01T19:02:54.947Z,100674.66
2023-01-01T19:05:24.894Z,100673.16
2023-01-01T19:08:02.577Z,100669.59
2023-01-01T19:10:36.209Z,100681.91
2023-01-01T19:13:16.112Z,100684.53
2023-01-01T19:15:48.362Z,100676.47
2023-01-01T19:18:18.868Z,100665.28
2023-01-01T19:20:49.689Z,100675.06
2023-01-01T19:23:22.992Z,100678.19
2023-01-01T19:25:51.321Z,100680.00
2023-01-01T19:28:40.416Z,100673.09
2023-01-01T19:31:09.910Z,100682.81
2023-01-01T19:33:39.509Z,100679.34
2023-01-01T19:36:09.515Z,100677.34
2023-01-01T19:38:37.683Z,100676.47
2023-01-01T19:41:07.761Z,100676.88
2023-01-01T19:43:37.211Z,100679.34
2023-01-01T19:46:06.396Z,100676.16
2023-01-01T19:48:34.985Z,100676.16
2023-01-01T19:51:02.758Z,100678.13
2023-01-01T19:53:30.911Z,100667.81
2023-01-01T19:55:58.900Z,100663.91
2023-01-01T19:58:27.148Z,100676.84
2023-01-01T20:00:54.779Z,100673.09
2023-01-01T20:06:12.421Z,100671.59
2023-01-01T20:08:40.508Z,100674.38
2023-01-01T20:11:08.820Z,100672.97
2023-01-01T20:13:36.920Z,100676.50
2023-01-01T20:16:05.046Z,100670.47
2023-01-01T20:18:34.677Z,100679.03
2023-01-01T20:21:02.371Z,100679.88
2023-01-01T20:23:30.587Z,100682.41
2023-01-01T20:25:58.333Z,100691.84
2023-01-01T20:28:26.430Z,100685.94
2023-01-01T20:30:54.146Z,100686.31
2023-01-01T20:33:22.128Z,100683.41
2023-01-01T20:35:51.432Z,100683.56
2023-01-01T20:38:19.402Z,100676.91
2023-01-01T20:40:47.039Z,100683.41
2023-01-01T20:43:15.025Z,100693.09
2023-01-01T20:45:42.757Z,100699.75
2023-01-01T20:48:14.739Z,100697.81
2023-01-01T20:50:47.120Z,100704.09
2023-01-01T20:53:16.661Z,100698.56
2023-01-01T20:55:44.528Z,100694.06
2023-01-01T20:58:12.603Z,100691.09
2023-01-01T21:00:40.317Z,100689.63
2023-01-01T21:03:08.518Z,100686.91
2023-01-01T21:05:36.188Z,100687.41
2023-01-01T21:08:04.836Z,100693.47
2023-01-01T21:10:34.099Z,100684.50
2023-01-01T21:13:02.433Z,100682.44
2023-01-01T21:15:30.206Z,100671.28
2023-01-01T21:17:58.992Z,100677.03
2023-01-01T21:20:30.369Z,100674.16
2023-01-01T21:23:00.444Z,100672.19
2023-01-01T21:28:20.029Z,100677.00
2023-01-01T21:30:51.028Z,100676.66
2023-01-01T21:33:25.717Z,100678.16
2023-01-01T21:35:53.437Z,100686.34
2023-01-01T21:38:24.847Z,100692.09
2023-01-01T21:40:53.236Z,100683.94
2023-01-01T21:43:37.630Z,100688.84
2023-01-01T21:46:32.378Z,100690.53
2023-01-01T21:49:04.346Z,100695.09
2023-01-01T21:51:33.530Z,100694.44
2023-01-01T21:54:14.821Z,100697.97
2023-01-01T21:56:43.458Z,100694.06
2023-01-01T21:59:16.498Z,100699.81
2023-01-01T22:01:45.512Z,100689.66
2023-01-01T22:04:19.799Z,100701.78
2023-01-01T22:06:49.878Z,100703.00
2023-01-01T22:09:21.794Z,100696.41
2023-01-01T22:11:51.074Z,100696.06
2023-01-01T22:14:26.416Z,100697.59
2023-01-01T22:16:55.436Z,100698.59
2023-01-01T22:19:28.341Z,100701.06
2023-01-01T22:21:55.871Z,100687.97
2023-01-01T22:24:34.410Z,100680.69
2023-01-01T22:27:23.302Z,100681.34
2023-01-01T22:29:52.981Z,100667.81
2023-01-01T22:32:24.253Z,100668.56
2023-01-01T22:34:54.858Z,100682.38
2023-01-01T22:37:27.416Z,100676.66
2023-01-01T22:39:55.404Z,100681.28
2023-01-01T22:42:23.015Z,100675.84
2023-01-01T22:44:58.282Z,100665.28
2023-01-01T22:47:33.098Z,100648.59
2023-01-01T22:50:02.127Z,100640.53
2023-01-01T22:52:29.884Z,100647.56
2023-01-01T22:54:57.940Z,100636.34
2023-01-01T22:57:25.507Z,100646.31
2023-01-01T22:59:53.505Z,100638.63
2023-01-01T23:02:22.606Z,100637.97
2023-01-01T23:04:50.706Z,100655.97
2023-01-01T23:07:18.465Z,100643.22
2023-01-01T23:09:46.589Z,100640.00
2023-01-01T23:12:14.111Z,100628.00
2023-01-01T23:14:45.111Z,100625.72
2023-01-01T23:17:12.722Z,100629.38
2023-01-01T23:19:42.231Z,100628.63
2023-01-01T23:22:09.875Z,100630.00
2023-01-01T23:24:41.076Z,100624.50
2023-01-01T23:27:08.635Z,100615.78
2023-01-01T23:29:36.895Z,100614.63
2023-01-01T23:32:04.966Z,100614.59
2023-01-01T23:34:33.570Z,100608.09
2023-01-01T23:37:02.662Z,100610.47
2023-01-01T23:39:30.782Z,100599.91
2023-01-01T23:41:58.544Z,100594.56
2023-01-01T23:44:26.406Z,100603.50
2023-01-01T23:46:54.429Z,100601.09
2023-01-01T23:49:23.137Z,100591.31
2023-01-01T23:51:50.907Z,100592.16
2023-01-01T23:54:20.614Z,100598.47
2023-01-01T23:56:48.173Z,100580.06
2023-01-01T23:59:16.112Z,100589.78
